createdAt,value
2022-11-03T03:00:53.913Z,96.24
2022-11-03T03:01:14.662Z,96.24
2022-11-03T03:01:35.599Z,96.14
2022-11-03T03:01:56.287Z,96.03
2022-11-03T03:02:16.879Z,96.03
2022-11-03T03:02:37.545Z,96.14
2022-11-03T03:02:58.124Z,96.34
2022-11-03T03:03:18.707Z,96.55
2022-11-03T03:03:39.299Z,96.55
2022-11-03T03:03:59.879Z,96.55
2022-11-03T03:04:20.458Z,96.66
2022-11-03T03:04:40.849Z,96.66
2022-11-03T03:05:01.437Z,96.66
2022-11-03T03:05:22.017Z,96.55
2022-11-03T03:05:42.600Z,96.55
2022-11-03T03:06:03.195Z,96.55
2022-11-03T03:06:23.777Z,96.55
2022-11-03T03:06:44.358Z,96.45
2022-11-03T03:07:04.951Z,96.45
2022-11-03T03:07:25.529Z,96.55
2022-11-03T03:07:46.113Z,96.55
2022-11-03T03:08:06.700Z,96.55
2022-11-03T03:08:27.281Z,96.55
2022-11-03T03:08:47.859Z,96.55
2022-11-03T03:09:08.446Z,96.55
2022-11-03T03:09:29.025Z,96.55
2022-11-03T03:09:49.606Z,96.55
2022-11-03T03:10:10.186Z,96.55
2022-11-03T03:10:30.772Z,96.55
2022-11-03T03:10:51.350Z,96.55
2022-11-03T03:11:11.948Z,96.45
2022-11-03T03:11:53.113Z,96.14
2022-11-03T03:12:13.505Z,95.93
2022-11-03T03:12:34.091Z,95.93
2022-11-03T03:12:54.687Z,95.93
2022-11-03T03:13:15.246Z,95.93
2022-11-03T03:13:35.839Z,96.03
2022-11-03T03:13:56.425Z,96.03
2022-11-03T03:14:23.935Z,96.14
2022-11-03T03:14:39.417Z,96.14
2022-11-03T03:14:59.997Z,96.24
2022-11-03T03:15:20.574Z,96.24
2022-11-03T03:15:41.161Z,96.24
2022-11-03T03:16:01.782Z,96.34
2022-11-03T03:16:22.340Z,96.34
2022-11-03T03:16:42.921Z,96.45
2022-11-03T03:17:03.509Z,96.34
2022-11-03T03:17:24.092Z,96.24
2022-11-03T03:17:44.679Z,96.24
2022-11-03T03:18:05.255Z,96.14
2022-11-03T03:18:25.845Z,96.14
2022-11-03T03:18:46.432Z,96.03
2022-11-03T03:19:07.016Z,95.93
2022-11-03T03:19:27.598Z,95.93
2022-11-03T03:19:48.172Z,95.93
2022-11-03T03:20:08.569Z,96.03
2022-11-03T03:20:29.153Z,96.03
2022-11-03T03:20:49.735Z,96.03
2022-11-03T03:21:10.338Z,96.14
2022-11-03T03:21:30.917Z,96.24
2022-11-03T03:21:51.499Z,96.34
2022-11-03T03:22:12.091Z,96.45
2022-11-03T03:22:32.674Z,96.45
2022-11-03T03:22:53.250Z,96.45
2022-11-03T03:23:14.337Z,96.55
2022-11-03T03:23:34.237Z,96.66
2022-11-03T03:23:54.820Z,96.66
2022-11-03T03:24:15.403Z,96.66
2022-11-03T03:24:35.988Z,96.55
2022-11-03T03:24:56.574Z,96.55
2022-11-03T03:25:17.156Z,96.55
2022-11-03T03:25:37.741Z,96.45
2022-11-03T03:25:58.339Z,96.41
2022-11-03T03:26:18.919Z,96.41
2022-11-03T03:26:39.505Z,96.41
2022-11-03T03:27:00.096Z,96.41
2022-11-03T03:27:20.679Z,96.51
2022-11-03T03:27:41.264Z,96.61
2022-11-03T03:28:01.844Z,96.61
2022-11-03T03:28:22.427Z,96.72
2022-11-03T03:28:42.820Z,96.72
2022-11-03T03:29:03.405Z,96.72
2022-11-03T03:29:23.989Z,96.61
2022-11-03T03:29:44.584Z,96.61
2022-11-03T03:30:04.962Z,96.61
2022-11-03T03:30:25.545Z,96.61
2022-11-03T03:30:46.123Z,96.72
2022-11-03T03:31:06.568Z,96.72
2022-11-03T03:31:27.128Z,96.82
2022-11-03T03:31:47.702Z,96.92
2022-11-03T03:32:08.287Z,96.92
2022-11-03T03:32:28.870Z,97.03
2022-11-03T03:32:49.262Z,97.03
2022-11-03T03:33:10.299Z,97.13
2022-11-03T03:33:30.940Z,97.13
2022-11-03T03:33:56.096Z,97.13
2022-11-03T03:34:31.354Z,97.13
2022-11-03T03:34:35.053Z,97.13
2022-11-03T03:34:56.449Z,97.13
2022-11-03T03:35:17.033Z,97.24
2022-11-03T03:35:37.609Z,97.24
2022-11-03T03:35:58.207Z,97.34
2022-11-03T03:36:18.793Z,97.34
2022-11-03T03:36:39.372Z,97.34
2022-11-03T03:36:59.950Z,97.34
2022-11-03T03:37:20.345Z,97.24
2022-11-03T03:37:40.933Z,97.24
2022-11-03T03:38:01.514Z,97.24
2022-11-03T03:38:22.094Z,97.24
2022-11-03T03:38:42.686Z,97.24
2022-11-03T03:39:03.258Z,97.24
2022-11-03T03:39:23.840Z,97.24
2022-11-03T03:39:44.420Z,97.24
2022-11-03T03:40:05.002Z,97.34
2022-11-03T03:40:25.586Z,97.34
2022-11-03T03:40:46.168Z,97.34
2022-11-03T03:41:10.512Z,97.34
2022-11-03T03:41:31.439Z,97.44
2022-11-03T03:41:52.021Z,97.44
2022-11-03T03:42:12.605Z,97.44
2022-11-03T03:42:33.206Z,97.44
2022-11-03T03:42:53.782Z,97.44
2022-11-03T03:43:14.371Z,97.34
2022-11-03T03:43:34.954Z,97.34
2022-11-03T03:43:55.541Z,97.24
2022-11-03T03:44:16.124Z,97.13
2022-11-03T03:44:36.711Z,97.13
2022-11-03T03:44:57.294Z,96.92
2022-11-03T03:45:17.874Z,96.82
2022-11-03T03:45:38.457Z,96.82
2022-11-03T03:45:59.050Z,96.72
2022-11-03T03:46:19.658Z,96.61
2022-11-03T03:46:40.222Z,96.51
2022-11-03T03:47:00.806Z,96.61
2022-11-03T03:47:21.393Z,96.61
2022-11-03T03:47:41.974Z,96.72
2022-11-03T03:48:02.373Z,96.61
2022-11-03T03:48:22.949Z,96.72
2022-11-03T03:48:43.536Z,96.61
2022-11-03T03:49:04.115Z,96.61
2022-11-03T03:49:24.702Z,96.41
2022-11-03T03:49:45.287Z,96.41
2022-11-03T03:50:05.872Z,96.41
2022-11-03T03:50:26.456Z,96.41
2022-11-03T03:50:47.037Z,96.51
2022-11-03T03:51:07.449Z,96.51
2022-11-03T03:51:28.025Z,96.51
2022-11-03T03:51:48.612Z,96.51
2022-11-03T03:52:09.197Z,96.51
2022-11-03T03:52:29.777Z,96.51
2022-11-03T03:52:50.362Z,96.41
2022-11-03T03:53:10.940Z,96.30
2022-11-03T03:53:31.528Z,96.30
2022-11-03T03:53:52.112Z,96.30
2022-11-03T03:54:12.694Z,96.30
2022-11-03T03:54:33.279Z,96.30
2022-11-03T03:54:53.862Z,96.41
2022-11-03T03:55:14.519Z,96.51
2022-11-03T03:55:34.835Z,96.61
2022-11-03T03:55:55.430Z,96.72
2022-11-03T03:56:16.011Z,96.82
2022-11-03T03:56:36.598Z,96.82
2022-11-03T03:56:57.183Z,96.82
2022-11-03T03:57:17.762Z,96.82
2022-11-03T03:57:38.343Z,96.92
2022-11-03T03:58:00.412Z,96.92
2022-11-03T03:58:21.189Z,96.92
2022-11-03T03:58:41.770Z,96.92
2022-11-03T03:59:02.167Z,96.92
2022-11-03T03:59:22.746Z,96.92
2022-11-03T03:59:43.334Z,96.92
2022-11-03T04:00:03.912Z,96.82
2022-11-03T04:00:24.497Z,96.92
2022-11-03T04:00:45.168Z,96.82
2022-11-03T04:01:05.921Z,96.72
2022-11-03T04:01:26.629Z,96.72
2022-11-03T04:01:47.394Z,96.82
2022-11-03T04:02:08.186Z,96.72
2022-11-03T04:02:28.901Z,96.72
2022-11-03T04:02:49.485Z,96.72
2022-11-03T04:03:10.063Z,96.72
2022-11-03T04:03:30.650Z,96.82
2022-11-03T04:03:51.236Z,96.82
2022-11-03T04:04:11.823Z,96.92
2022-11-03T04:04:32.403Z,96.92
2022-11-03T04:04:52.987Z,96.92
2022-11-03T04:05:13.447Z,97.03
2022-11-03T04:05:34.032Z,97.13
2022-11-03T04:05:54.638Z,97.13
2022-11-03T04:06:15.220Z,97.13
2022-11-03T04:06:35.801Z,96.92
2022-11-03T04:06:56.393Z,96.72
2022-11-03T04:07:16.983Z,96.72
2022-11-03T04:07:42.484Z,96.82
2022-11-03T04:07:57.968Z,96.82
2022-11-03T04:08:18.551Z,96.72
2022-11-03T04:08:39.133Z,96.61
2022-11-03T04:08:59.705Z,96.61
2022-11-03T04:09:20.102Z,96.72
2022-11-03T04:09:40.690Z,96.72
2022-11-03T04:10:01.084Z,96.72
2022-11-03T04:10:21.666Z,96.61
2022-11-03T04:10:42.249Z,96.61
2022-11-03T04:11:02.662Z,96.61
2022-11-03T04:11:23.059Z,96.72
2022-11-03T04:11:43.641Z,96.72
2022-11-03T04:12:04.232Z,96.72
2022-11-03T04:12:24.846Z,96.82
2022-11-03T04:12:45.395Z,96.92
2022-11-03T04:13:05.977Z,97.03
2022-11-03T04:13:26.559Z,97.03
2022-11-03T04:13:47.139Z,97.03
2022-11-03T04:14:07.722Z,97.03
2022-11-03T04:14:28.310Z,97.03
2022-11-03T04:14:48.885Z,97.03
2022-11-03T04:15:09.469Z,97.13
2022-11-03T04:15:30.050Z,97.13
2022-11-03T04:15:50.653Z,97.13
2022-11-03T04:16:11.236Z,97.13
2022-11-03T04:16:31.836Z,97.13
2022-11-03T04:16:52.394Z,97.13
2022-11-03T04:17:12.983Z,97.24
2022-11-03T04:17:33.566Z,97.13
2022-11-03T04:17:54.159Z,97.03
2022-11-03T04:18:14.745Z,96.92
2022-11-03T04:18:35.320Z,97.03
2022-11-03T04:18:55.901Z,97.03
2022-11-03T04:19:16.485Z,97.03
2022-11-03T04:19:37.068Z,96.92
2022-11-03T04:19:57.650Z,96.82
2022-11-03T04:20:18.236Z,96.82
2022-11-03T04:20:38.816Z,96.92
2022-11-03T04:20:59.410Z,97.03
2022-11-03T04:21:19.991Z,97.03
2022-11-03T04:21:40.575Z,97.13
2022-11-03T04:22:01.157Z,97.13
2022-11-03T04:22:21.732Z,97.13
2022-11-03T04:22:42.323Z,97.03
2022-11-03T04:23:02.907Z,97.03
2022-11-03T04:23:23.492Z,97.03
2022-11-03T04:23:44.071Z,97.13
2022-11-03T04:24:04.659Z,97.13
2022-11-03T04:24:25.243Z,97.03
2022-11-03T04:24:45.825Z,96.92
2022-11-03T04:25:06.408Z,96.92
2022-11-03T04:25:26.990Z,97.03
2022-11-03T04:25:47.588Z,97.13
2022-11-03T04:26:07.981Z,97.24
2022-11-03T04:26:28.561Z,97.24
2022-11-03T04:26:49.144Z,97.24
2022-11-03T04:27:09.720Z,97.13
2022-11-03T04:27:30.303Z,97.13
2022-11-03T04:27:50.882Z,97.03
2022-11-03T04:28:11.468Z,97.13
2022-11-03T04:28:32.053Z,97.24
2022-11-03T04:28:52.636Z,97.24
2022-11-03T04:29:13.216Z,97.34
2022-11-03T04:29:33.800Z,97.24
2022-11-03T04:29:54.378Z,97.13
2022-11-03T04:30:14.962Z,97.03
2022-11-03T04:30:35.543Z,96.92
2022-11-03T04:30:58.665Z,96.92
2022-11-03T04:31:19.624Z,96.92
2022-11-03T04:31:40.229Z,96.92
2022-11-03T04:32:00.791Z,96.92
2022-11-03T04:32:21.374Z,97.03
2022-11-03T04:32:41.962Z,96.92
2022-11-03T04:33:02.532Z,97.03
2022-11-03T04:33:23.114Z,97.13
2022-11-03T04:33:43.691Z,97.13
2022-11-03T04:34:04.093Z,97.13
2022-11-03T04:34:24.673Z,97.13
2022-11-03T04:34:45.254Z,97.24
2022-11-03T04:35:05.836Z,97.24
2022-11-03T04:35:26.426Z,97.13
2022-11-03T04:35:47.006Z,97.13
2022-11-03T04:36:07.603Z,97.13
2022-11-03T04:36:28.183Z,97.24
2022-11-03T04:36:48.768Z,97.24
2022-11-03T04:37:09.351Z,97.24
2022-11-03T04:37:29.937Z,97.13
2022-11-03T04:37:50.666Z,97.13
2022-11-03T04:38:11.252Z,97.13
2022-11-03T04:38:31.887Z,97.13
2022-11-03T04:38:52.473Z,97.13
2022-11-03T04:39:13.105Z,97.03
2022-11-03T04:39:33.767Z,96.92
2022-11-03T04:39:54.459Z,96.92
2022-11-03T04:40:14.851Z,96.92
2022-11-03T04:40:35.453Z,97.03
2022-11-03T04:40:56.076Z,96.92
2022-11-03T04:41:16.813Z,96.82
2022-11-03T04:41:37.402Z,96.72
2022-11-03T04:41:57.990Z,96.61
2022-11-03T04:42:18.566Z,96.61
2022-11-03T04:42:39.152Z,96.51
2022-11-03T04:42:59.733Z,96.51
2022-11-03T04:43:20.315Z,96.41
2022-11-03T04:43:40.891Z,96.41
2022-11-03T04:44:01.472Z,96.51
2022-11-03T04:44:22.143Z,96.41
2022-11-03T04:44:42.722Z,96.20
2022-11-03T04:45:03.118Z,96.09
2022-11-03T04:45:23.698Z,95.89
2022-11-03T04:45:44.297Z,95.78
2022-11-03T04:46:04.876Z,95.89
2022-11-03T04:46:25.457Z,95.99
2022-11-03T04:46:46.063Z,96.20
2022-11-03T04:47:06.624Z,96.41
2022-11-03T04:47:27.209Z,96.51
2022-11-03T04:47:47.789Z,96.72
2022-11-03T04:48:08.371Z,96.72
2022-11-03T04:48:28.957Z,96.82
2022-11-03T04:48:49.540Z,96.92
2022-11-03T04:49:10.119Z,97.03
2022-11-03T04:49:30.701Z,97.13
2022-11-03T04:49:51.284Z,97.13
2022-11-03T04:50:11.866Z,97.13
2022-11-03T04:50:32.457Z,97.13
2022-11-03T04:50:53.059Z,97.03
2022-11-03T04:51:13.641Z,97.13
2022-11-03T04:51:34.228Z,97.17
2022-11-03T04:51:54.615Z,97.24
2022-11-03T04:52:15.232Z,97.38
2022-11-03T04:52:35.815Z,97.38
2022-11-03T04:52:56.400Z,97.49
2022-11-03T04:53:16.979Z,97.38
2022-11-03T04:53:37.565Z,97.17
2022-11-03T04:53:58.147Z,97.07
2022-11-03T04:54:18.731Z,97.07
2022-11-03T04:54:39.314Z,97.17
2022-11-03T04:54:59.894Z,97.17
2022-11-03T04:55:20.478Z,97.24
2022-11-03T04:55:40.878Z,97.28
2022-11-03T04:56:06.127Z,97.17
2022-11-03T04:56:21.865Z,97.07
2022-11-03T04:56:42.443Z,97.03
2022-11-03T04:57:03.031Z,97.03
2022-11-03T04:57:23.610Z,97.03
2022-11-03T04:57:44.192Z,97.13
2022-11-03T04:58:04.772Z,97.28
2022-11-03T04:58:25.351Z,97.28
2022-11-03T04:58:45.940Z,97.34
2022-11-03T04:59:06.526Z,97.34
2022-11-03T04:59:27.109Z,97.44
2022-11-03T04:59:47.693Z,97.34
2022-11-03T05:00:08.272Z,97.24
2022-11-03T05:00:28.670Z,97.24
2022-11-03T05:00:49.296Z,97.13
2022-11-03T05:01:09.892Z,97.13
2022-11-03T05:01:30.586Z,97.17
2022-11-03T05:01:51.356Z,97.13
2022-11-03T05:02:12.016Z,97.17
2022-11-03T05:02:32.601Z,97.13
2022-11-03T05:02:56.020Z,97.13
2022-11-03T05:03:17.153Z,97.03
2022-11-03T05:03:37.736Z,97.03
2022-11-03T05:03:58.318Z,97.07
2022-11-03T05:04:18.904Z,96.97
2022-11-03T05:04:39.482Z,96.92
2022-11-03T05:04:59.880Z,96.82
2022-11-03T05:05:20.468Z,96.82
2022-11-03T05:05:41.051Z,96.76
2022-11-03T05:06:01.644Z,96.72
2022-11-03T05:06:22.223Z,96.82
2022-11-03T05:06:42.820Z,96.82
2022-11-03T05:07:03.401Z,96.97
2022-11-03T05:07:23.985Z,97.03
2022-11-03T05:07:44.569Z,97.07
2022-11-03T05:08:05.150Z,97.07
2022-11-03T05:08:25.544Z,96.97
2022-11-03T05:08:46.127Z,96.86
2022-11-03T05:09:06.712Z,96.76
2022-11-03T05:09:27.295Z,96.76
2022-11-03T05:09:47.688Z,96.86
2022-11-03T05:10:08.272Z,96.86
2022-11-03T05:10:28.854Z,96.86
2022-11-03T05:10:49.263Z,96.86
2022-11-03T05:11:09.869Z,96.86
2022-11-03T05:11:30.446Z,96.97
2022-11-03T05:11:51.027Z,97.07
2022-11-03T05:12:11.614Z,97.07
2022-11-03T05:12:32.199Z,97.17
2022-11-03T05:12:52.779Z,97.17
2022-11-03T05:13:13.355Z,97.17
2022-11-03T05:13:33.939Z,97.17
2022-11-03T05:13:54.524Z,97.17
2022-11-03T05:14:15.102Z,97.24
2022-11-03T05:14:35.680Z,97.28
2022-11-03T05:14:58.782Z,97.28
2022-11-03T05:15:19.661Z,97.28
2022-11-03T05:15:40.242Z,97.28
2022-11-03T05:16:00.834Z,97.38
2022-11-03T05:16:21.418Z,97.38
2022-11-03T05:16:42.002Z,97.49
2022-11-03T05:17:02.603Z,97.55
2022-11-03T05:17:23.165Z,97.69
2022-11-03T05:17:43.742Z,97.65
2022-11-03T05:18:04.327Z,97.55
2022-11-03T05:18:24.910Z,97.55
2022-11-03T05:18:45.304Z,97.59
2022-11-03T05:19:05.885Z,97.44
2022-11-03T05:19:26.468Z,97.49
2022-11-03T05:19:47.051Z,97.49
2022-11-03T05:20:07.629Z,97.44
2022-11-03T05:20:31.845Z,97.49
2022-11-03T05:20:48.420Z,97.49
2022-11-03T05:21:09.009Z,97.49
2022-11-03T05:21:29.603Z,97.49
2022-11-03T05:21:50.185Z,97.49
2022-11-03T05:22:10.577Z,97.38
2022-11-03T05:22:30.974Z,97.38
2022-11-03T05:22:51.557Z,97.38
2022-11-03T05:23:12.140Z,97.38
2022-11-03T05:23:32.721Z,97.49
2022-11-03T05:23:53.304Z,97.49
2022-11-03T05:24:34.091Z,97.49
2022-11-03T05:24:54.677Z,97.59
2022-11-03T05:25:15.262Z,97.69
2022-11-03T05:25:35.849Z,97.69
2022-11-03T05:25:56.242Z,97.59
2022-11-03T05:26:16.847Z,97.59
2022-11-03T05:26:37.430Z,97.59
2022-11-03T05:26:58.018Z,97.59
2022-11-03T05:27:18.589Z,97.59
2022-11-03T05:27:39.171Z,97.59
2022-11-03T05:27:59.755Z,97.59
2022-11-03T05:28:20.334Z,97.69
2022-11-03T05:28:40.728Z,97.69
2022-11-03T05:29:01.305Z,97.59
2022-11-03T05:29:21.889Z,97.59
2022-11-03T05:29:42.469Z,97.59
2022-11-03T05:30:03.054Z,97.59
2022-11-03T05:30:23.633Z,97.59
2022-11-03T05:30:44.219Z,97.59
2022-11-03T05:31:04.817Z,97.59
2022-11-03T05:31:25.403Z,97.59
2022-11-03T05:31:45.991Z,97.59
2022-11-03T05:32:06.591Z,97.59
2022-11-03T05:32:27.143Z,97.59
2022-11-03T05:32:47.738Z,97.59
2022-11-03T05:33:08.308Z,97.59
2022-11-03T05:33:28.914Z,97.59
2022-11-03T05:33:49.488Z,97.80
2022-11-03T05:34:10.069Z,97.80
2022-11-03T05:34:30.648Z,97.80
2022-11-03T05:34:51.239Z,97.69
2022-11-03T05:35:11.818Z,97.69
2022-11-03T05:35:32.403Z,97.69
2022-11-03T05:35:52.981Z,97.69
2022-11-03T05:36:13.611Z,97.69
2022-11-03T05:36:34.204Z,97.69
2022-11-03T05:36:54.787Z,97.69
2022-11-03T05:37:15.393Z,97.80
2022-11-03T05:37:35.967Z,97.80
2022-11-03T05:37:56.546Z,97.80
2022-11-03T05:38:17.134Z,97.80
2022-11-03T05:38:37.530Z,97.80
2022-11-03T05:38:58.112Z,97.80
2022-11-03T05:39:18.697Z,97.80
2022-11-03T05:39:39.283Z,97.75
2022-11-03T05:39:59.900Z,97.80
2022-11-03T05:40:20.452Z,97.80
2022-11-03T05:40:41.029Z,97.80
2022-11-03T05:41:01.621Z,97.80
2022-11-03T05:41:22.201Z,97.69
2022-11-03T05:41:42.785Z,97.80
2022-11-03T05:42:03.362Z,97.80
2022-11-03T05:42:23.758Z,97.90
2022-11-03T05:42:44.343Z,98.00
2022-11-03T05:43:09.714Z,98.00
2022-11-03T05:43:25.142Z,98.11
2022-11-03T05:43:45.721Z,98.11
2022-11-03T05:44:06.304Z,98.07
2022-11-03T05:44:26.893Z,98.11
2022-11-03T05:44:47.475Z,98.11
2022-11-03T05:45:08.062Z,98.00
2022-11-03T05:45:28.453Z,97.96
2022-11-03T05:45:49.043Z,98.00
2022-11-03T05:46:09.638Z,98.00
2022-11-03T05:46:30.239Z,98.00
2022-11-03T05:46:50.857Z,98.00
2022-11-03T05:47:11.446Z,98.00
2022-11-03T05:47:32.008Z,98.00
2022-11-03T05:47:52.595Z,98.00
2022-11-03T05:48:12.988Z,98.11
2022-11-03T05:48:33.567Z,98.11
2022-11-03T05:48:53.963Z,98.11
2022-11-03T05:49:14.547Z,98.11
2022-11-03T05:49:35.132Z,98.11
2022-11-03T05:49:55.524Z,98.00
2022-11-03T05:50:16.110Z,98.00
2022-11-03T05:50:36.697Z,98.00
2022-11-03T05:50:57.271Z,98.11
2022-11-03T05:51:17.875Z,98.11
2022-11-03T05:51:38.455Z,98.11
2022-11-03T05:51:59.034Z,98.11
2022-11-03T05:52:19.612Z,98.11
2022-11-03T05:52:40.185Z,98.11
2022-11-03T05:53:00.766Z,98.11
2022-11-03T05:53:21.351Z,98.11
2022-11-03T05:53:41.931Z,98.11
2022-11-03T05:54:02.514Z,98.00
2022-11-03T05:54:23.103Z,98.00
2022-11-03T05:54:43.682Z,98.00
2022-11-03T05:55:04.264Z,98.00
2022-11-03T05:55:24.655Z,98.00
2022-11-03T05:55:45.235Z,98.11
2022-11-03T05:56:05.837Z,98.11
2022-11-03T05:56:26.434Z,98.21
2022-11-03T05:56:46.817Z,98.21
2022-11-03T05:57:07.399Z,98.11
2022-11-03T05:57:27.983Z,98.11
2022-11-03T05:57:48.564Z,98.21
2022-11-03T05:58:09.394Z,98.21
2022-11-03T05:58:30.125Z,98.11
2022-11-03T05:58:50.707Z,98.00
2022-11-03T05:59:11.290Z,98.00
2022-11-03T05:59:31.880Z,98.00
2022-11-03T05:59:52.265Z,98.00
2022-11-03T06:00:12.856Z,97.90
2022-11-03T06:00:33.258Z,97.90
2022-11-03T06:00:53.864Z,98.00
2022-11-03T06:01:14.500Z,98.00
2022-11-03T06:01:35.108Z,98.00
2022-11-03T06:01:55.830Z,98.00
2022-11-03T06:02:16.673Z,97.90
2022-11-03T06:02:37.422Z,97.90
2022-11-03T06:02:58.065Z,97.90
2022-11-03T06:03:18.657Z,98.00
2022-11-03T06:03:39.235Z,97.90
2022-11-03T06:03:59.821Z,97.90
2022-11-03T06:04:20.409Z,97.90
2022-11-03T06:04:40.988Z,97.96
2022-11-03T06:05:01.574Z,97.96
2022-11-03T06:05:22.157Z,97.96
2022-11-03T06:05:42.740Z,97.96
2022-11-03T06:06:03.335Z,97.96
2022-11-03T06:06:27.990Z,97.96
2022-11-03T06:06:44.136Z,97.96
2022-11-03T06:07:04.527Z,97.96
2022-11-03T06:07:25.118Z,97.96
2022-11-03T06:07:45.702Z,97.96
2022-11-03T06:08:06.706Z,97.96
2022-11-03T06:08:27.481Z,97.96
2022-11-03T06:08:48.061Z,97.96
2022-11-03T06:09:08.643Z,98.07
2022-11-03T06:09:29.224Z,98.07
2022-11-03T06:09:49.811Z,98.17
2022-11-03T06:10:10.392Z,98.17
2022-11-03T06:10:30.977Z,98.17
2022-11-03T06:10:51.578Z,98.17
2022-11-03T06:11:11.963Z,98.27
2022-11-03T06:11:32.545Z,98.27
2022-11-03T06:11:53.169Z,98.27
2022-11-03T06:12:13.757Z,98.27
2022-11-03T06:12:34.341Z,98.27
2022-11-03T06:12:54.922Z,98.27
2022-11-03T06:13:15.503Z,98.27
2022-11-03T06:13:36.084Z,98.38
2022-11-03T06:13:56.668Z,98.38
2022-11-03T06:14:19.987Z,98.38
2022-11-03T06:14:37.662Z,98.38
2022-11-03T06:14:58.240Z,98.38
2022-11-03T06:15:18.833Z,98.27
2022-11-03T06:15:39.410Z,98.38
2022-11-03T06:16:00.013Z,98.27
2022-11-03T06:16:20.596Z,98.27
2022-11-03T06:16:41.180Z,98.27
2022-11-03T06:17:01.759Z,98.27
2022-11-03T06:17:22.362Z,98.27
2022-11-03T06:17:42.925Z,98.27
2022-11-03T06:18:03.510Z,98.17
2022-11-03T06:18:24.089Z,98.17
2022-11-03T06:18:44.671Z,98.07
2022-11-03T06:19:05.252Z,97.96
2022-11-03T06:19:25.839Z,97.86
2022-11-03T06:19:46.243Z,97.75
2022-11-03T06:20:06.825Z,97.65
2022-11-03T06:20:27.444Z,97.65
2022-11-03T06:20:48.029Z,97.65
2022-11-03T06:21:08.626Z,97.65
2022-11-03T06:21:29.209Z,97.65
2022-11-03T06:21:49.790Z,97.75
2022-11-03T06:22:10.189Z,97.65
2022-11-03T06:22:30.763Z,97.65
2022-11-03T06:22:51.347Z,97.55
2022-11-03T06:23:11.927Z,97.55
2022-11-03T06:23:32.511Z,97.55
2022-11-03T06:23:53.120Z,97.65
2022-11-03T06:24:13.689Z,97.55
2022-11-03T06:24:34.271Z,97.55
2022-11-03T06:24:54.875Z,97.44
2022-11-03T06:25:15.477Z,97.44
2022-11-03T06:25:36.039Z,97.44
2022-11-03T06:25:56.623Z,97.44
2022-11-03T06:26:17.032Z,97.44
2022-11-03T06:26:37.612Z,97.34
2022-11-03T06:26:58.006Z,97.34
2022-11-03T06:27:18.594Z,97.34
2022-11-03T06:27:39.176Z,97.44
2022-11-03T06:27:59.760Z,97.55
2022-11-03T06:28:20.342Z,97.65
2022-11-03T06:28:40.762Z,97.65
2022-11-03T06:29:01.337Z,97.75
2022-11-03T06:29:21.922Z,97.75
2022-11-03T06:29:42.498Z,97.86
2022-11-03T06:30:03.079Z,97.75
2022-11-03T06:30:23.676Z,97.75
2022-11-03T06:30:44.301Z,97.75
2022-11-03T06:31:04.907Z,97.65
2022-11-03T06:31:25.473Z,97.65
2022-11-03T06:31:46.093Z,97.75
2022-11-03T06:32:06.694Z,97.75
2022-11-03T06:32:27.289Z,97.75
2022-11-03T06:32:47.857Z,97.86
2022-11-03T06:33:08.886Z,97.86
2022-11-03T06:33:29.589Z,97.86
2022-11-03T06:33:50.172Z,97.86
2022-11-03T06:34:10.753Z,97.96
2022-11-03T06:34:31.330Z,97.96
2022-11-03T06:34:51.919Z,97.86
2022-11-03T06:35:12.498Z,97.75
2022-11-03T06:35:32.898Z,97.75
2022-11-03T06:35:53.491Z,97.86
2022-11-03T06:36:14.078Z,97.86
2022-11-03T06:36:34.662Z,97.86
2022-11-03T06:36:55.246Z,97.96
2022-11-03T06:37:15.825Z,98.07
2022-11-03T06:37:36.410Z,98.07
2022-11-03T06:37:56.992Z,98.07
2022-11-03T06:38:17.573Z,98.07
2022-11-03T06:38:38.159Z,98.07
2022-11-03T06:38:58.745Z,97.96
2022-11-03T06:39:19.331Z,97.96
2022-11-03T06:39:39.908Z,97.96
2022-11-03T06:40:00.488Z,97.96
2022-11-03T06:40:21.069Z,97.96
2022-11-03T06:40:41.467Z,97.86
2022-11-03T06:41:02.064Z,97.86
2022-11-03T06:41:22.651Z,97.75
2022-11-03T06:41:43.230Z,97.65
2022-11-03T06:42:03.813Z,97.65
2022-11-03T06:42:27.911Z,97.65
2022-11-03T06:42:44.806Z,97.65
2022-11-03T06:43:05.606Z,97.65
2022-11-03T06:43:26.272Z,97.65
2022-11-03T06:43:46.856Z,97.55
2022-11-03T06:44:07.434Z,97.44
2022-11-03T06:44:28.016Z,97.34
2022-11-03T06:44:48.600Z,97.34
2022-11-03T06:45:09.180Z,97.44
2022-11-03T06:45:29.761Z,97.55
2022-11-03T06:45:50.160Z,97.65
2022-11-03T06:46:10.566Z,97.75
2022-11-03T06:46:31.150Z,97.75
2022-11-03T06:46:51.548Z,97.75
2022-11-03T06:47:12.132Z,97.75
2022-11-03T06:47:32.734Z,97.75
2022-11-03T06:47:53.293Z,97.65
2022-11-03T06:48:13.874Z,97.65
2022-11-03T06:48:34.463Z,97.65
2022-11-03T06:48:55.042Z,97.65
2022-11-03T06:49:15.627Z,97.55
2022-11-03T06:49:36.239Z,97.55
2022-11-03T06:49:56.820Z,97.55
2022-11-03T06:50:17.404Z,97.65
2022-11-03T06:50:42.283Z,97.65
2022-11-03T06:50:58.407Z,97.65
2022-11-03T06:51:18.988Z,97.75
2022-11-03T06:51:39.575Z,97.75
2022-11-03T06:52:00.159Z,97.75
2022-11-03T06:52:20.743Z,97.75
2022-11-03T06:52:41.388Z,97.75
2022-11-03T06:53:02.004Z,97.65
2022-11-03T06:53:22.581Z,97.55
2022-11-03T06:53:43.173Z,97.55
2022-11-03T06:54:03.744Z,97.44
2022-11-03T06:54:24.325Z,97.34
2022-11-03T06:54:44.904Z,97.34
2022-11-03T06:55:05.490Z,97.34
2022-11-03T06:55:26.065Z,97.34
2022-11-03T06:55:46.651Z,97.24
2022-11-03T06:56:07.246Z,97.38
2022-11-03T06:56:27.831Z,97.38
2022-11-03T06:56:48.410Z,97.38
2022-11-03T06:57:08.998Z,97.44
2022-11-03T06:57:29.577Z,97.38
2022-11-03T06:57:50.169Z,97.44
2022-11-03T06:58:10.758Z,97.44
2022-11-03T06:58:31.338Z,97.44
2022-11-03T06:58:51.919Z,97.59
2022-11-03T06:59:12.502Z,97.69
2022-11-03T06:59:33.087Z,97.59
2022-11-03T07:00:06.605Z,97.59
2022-11-03T07:00:32.867Z,97.59
2022-11-03T07:00:36.319Z,97.59
2022-11-03T07:01:03.081Z,97.65
2022-11-03T07:01:18.875Z,97.65
2022-11-03T07:01:39.637Z,97.65
2022-11-03T07:02:00.035Z,97.55
2022-11-03T07:02:20.885Z,97.65
2022-11-03T07:02:41.182Z,97.65
2022-11-03T07:03:01.776Z,97.65
2022-11-03T07:03:22.355Z,97.75
2022-11-03T07:03:42.931Z,97.75
2022-11-03T07:04:03.516Z,97.75
2022-11-03T07:04:24.097Z,97.86
2022-11-03T07:04:44.680Z,97.86
2022-11-03T07:05:05.262Z,97.86
2022-11-03T07:05:25.845Z,97.96
2022-11-03T07:05:46.242Z,97.96
2022-11-03T07:06:06.842Z,97.96
2022-11-03T07:06:27.420Z,97.96
2022-11-03T07:06:52.787Z,97.96
2022-11-03T07:07:08.213Z,97.96
2022-11-03T07:07:28.793Z,97.96
2022-11-03T07:07:49.370Z,97.86
2022-11-03T07:08:09.958Z,97.96
2022-11-03T07:08:30.540Z,97.96
2022-11-03T07:08:51.121Z,97.96
2022-11-03T07:09:11.514Z,97.96
2022-11-03T07:09:32.092Z,97.96
2022-11-03T07:09:52.673Z,97.91
2022-11-03T07:10:13.255Z,98.02
2022-11-03T07:10:33.834Z,97.91
2022-11-03T07:10:54.419Z,97.91
2022-11-03T07:11:15.019Z,97.91
2022-11-03T07:11:35.608Z,97.91
2022-11-03T07:11:56.190Z,97.91
2022-11-03T07:12:16.781Z,97.81
2022-11-03T07:12:37.357Z,97.81
2022-11-03T07:12:59.869Z,97.91
2022-11-03T07:13:18.332Z,97.91
2022-11-03T07:13:38.913Z,97.91
2022-11-03T07:13:59.525Z,97.91
2022-11-03T07:14:20.108Z,98.02
2022-11-03T07:14:40.704Z,97.97
2022-11-03T07:15:01.341Z,97.97
2022-11-03T07:15:21.899Z,97.97
2022-11-03T07:15:42.482Z,97.97
2022-11-03T07:16:03.073Z,97.97
2022-11-03T07:16:23.662Z,97.97
2022-11-03T07:16:44.245Z,97.87
2022-11-03T07:17:04.834Z,97.87
2022-11-03T07:17:25.428Z,97.87
2022-11-03T07:17:46.033Z,97.87
2022-11-03T07:18:06.875Z,97.77
2022-11-03T07:18:26.980Z,97.66
2022-11-03T07:18:47.624Z,97.72
2022-11-03T07:19:08.193Z,97.72
2022-11-03T07:19:28.779Z,97.62
2022-11-03T07:19:49.373Z,97.52
2022-11-03T07:20:10.071Z,97.41
2022-11-03T07:20:30.653Z,97.31
2022-11-03T07:20:51.232Z,97.20
2022-11-03T07:21:11.832Z,97.20
2022-11-03T07:21:32.419Z,97.10
2022-11-03T07:21:53.008Z,97.00
2022-11-03T07:22:13.585Z,96.79
2022-11-03T07:22:34.170Z,96.79
2022-11-03T07:22:54.749Z,96.69
2022-11-03T07:23:15.337Z,96.69
2022-11-03T07:23:35.916Z,96.64
2022-11-03T07:23:56.503Z,96.54
2022-11-03T07:24:17.082Z,96.54
2022-11-03T07:24:37.666Z,96.44
2022-11-03T07:24:58.246Z,96.54
2022-11-03T07:25:18.644Z,96.44
2022-11-03T07:25:39.229Z,96.44
2022-11-03T07:25:59.640Z,96.44
2022-11-03T07:26:20.222Z,96.23
2022-11-03T07:26:40.801Z,96.23